createdAt,value
2018-04-12T00:00:29.242Z,9.8
2018-04-12T00:01:30.630Z,9.8
2018-04-12T00:02:32.016Z,9.8
2018-04-12T00:03:33.399Z,9.8
2018-04-12T00:04:34.786Z,9.7
2018-04-12T00:05:36.175Z,9.8
2018-04-12T00:06:37.563Z,9.7
2018-04-12T00:07:38.946Z,9.7
2018-04-12T00:08:40.331Z,9.7
2018-04-12T00:09:41.716Z,9.7
2018-04-12T00:10:43.101Z,9.7
2018-04-12T00:11:44.490Z,9.6
2018-04-12T00:12:45.873Z,9.6
2018-04-12T00:13:47.261Z,9.6
2018-04-12T00:14:48.642Z,9.6
2018-04-12T00:15:50.027Z,9.6
2018-04-12T00:16:51.413Z,9.5
2018-04-12T00:17:52.800Z,9.6
2018-04-12T00:18:54.186Z,9.6
2018-04-12T00:19:55.662Z,9.6
2018-04-12T00:20:57.069Z,9.5
2018-04-12T00:21:58.452Z,9.6
2018-04-12T00:22:59.840Z,9.6
2018-04-12T00:24:01.222Z,9.4
2018-04-12T00:25:02.611Z,9.4
2018-04-12T00:26:03.998Z,9.5
2018-04-12T00:27:05.382Z,9.5
2018-04-12T00:28:06.772Z,9.5
2018-04-12T00:29:08.159Z,9.5
2018-04-12T00:30:09.544Z,9.4
2018-04-12T00:31:10.934Z,9.4
2018-04-12T00:32:12.320Z,9.5
2018-04-12T00:33:13.705Z,9.4
2018-04-12T00:34:15.092Z,9.4
2018-04-12T00:35:16.476Z,9.4
2018-04-12T00:36:17.862Z,9.4
2018-04-12T00:37:19.244Z,9.4
2018-04-12T00:38:20.628Z,9.3
2018-04-12T00:39:22.014Z,9.4
2018-04-12T00:40:23.400Z,9.3
2018-04-12T00:41:24.790Z,9.3
2018-04-12T00:42:26.179Z,9.3
2018-04-12T00:43:27.564Z,9.3
2018-04-12T00:44:28.950Z,9.3
2018-04-12T00:45:30.338Z,9.3
2018-04-12T00:46:31.724Z,9.3
2018-04-12T00:47:33.106Z,9.3
2018-04-12T00:48:34.497Z,9.2
2018-04-12T00:49:35.880Z,9.3
2018-04-12T00:50:37.263Z,9.3
2018-04-12T00:51:38.645Z,9.3
2018-04-12T00:52:40.033Z,9.2
2018-04-12T00:53:41.418Z,9.2
2018-04-12T00:54:42.805Z,9.2
2018-04-12T00:55:44.192Z,9.2
2018-04-12T00:56:45.599Z,9.3
2018-04-12T00:57:46.962Z,9.2
2018-04-12T00:58:48.344Z,9.2
2018-04-12T00:59:49.732Z,9.2
2018-04-12T01:00:51.134Z,9.2
2018-04-12T01:01:52.502Z,9.2
2018-04-12T01:02:53.889Z,9.2
2018-04-12T01:03:55.274Z,9.3
2018-04-12T01:04:56.664Z,9.3
2018-04-12T01:05:58.047Z,9.3
2018-04-12T01:06:59.433Z,9.2
2018-04-12T01:08:00.824Z,9.3
2018-04-12T01:09:02.213Z,9.2
2018-04-12T01:10:03.645Z,9.3
2018-04-12T01:11:05.040Z,9.2
2018-04-12T01:12:06.422Z,9.3
2018-04-12T01:13:07.804Z,9.2
2018-04-12T01:14:09.187Z,9.2
2018-04-12T01:15:10.574Z,9.2
2018-04-12T01:16:11.961Z,9.2
2018-04-12T01:17:13.350Z,9.3
2018-04-12T01:18:14.733Z,9.2
2018-04-12T01:19:16.117Z,9.2
2018-04-12T01:20:17.502Z,9.1
2018-04-12T01:21:18.882Z,9.2
2018-04-12T01:22:20.270Z,9.2
2018-04-12T01:23:21.665Z,9.2
2018-04-12T01:24:23.052Z,9.2
2018-04-12T01:25:24.437Z,9.2
2018-04-12T01:26:25.823Z,9.1
2018-04-12T01:27:27.212Z,9.2
2018-04-12T01:28:28.590Z,9.0
2018-04-12T01:29:29.977Z,9.0
2018-04-12T01:30:31.366Z,9.1
2018-04-12T01:31:32.753Z,9.0
2018-04-12T01:32:34.138Z,9.0
2018-04-12T01:33:35.520Z,9.0
2018-04-12T01:34:36.917Z,9.0
2018-04-12T01:35:38.300Z,9.0
2018-04-12T01:36:39.694Z,9.0
2018-04-12T01:37:41.083Z,9.0
2018-04-12T01:38:42.471Z,9.0
2018-04-12T01:39:43.857Z,9.0
2018-04-12T01:40:45.239Z,9.0
2018-04-12T01:41:46.640Z,8.8
2018-04-12T01:42:48.025Z,8.9
2018-04-12T01:43:49.412Z,8.8
2018-04-12T01:44:50.797Z,8.9
2018-04-12T01:45:52.184Z,8.8
2018-04-12T01:46:53.571Z,8.8
2018-04-12T01:47:54.957Z,8.9
2018-04-12T01:48:56.339Z,8.9
2018-04-12T01:49:57.718Z,8.7
2018-04-12T01:50:59.101Z,8.8
2018-04-12T01:52:00.485Z,8.7
2018-04-12T01:53:01.873Z,8.8
2018-04-12T01:54:03.262Z,8.8
2018-04-12T01:55:04.646Z,8.7
2018-04-12T01:56:06.031Z,8.8
2018-04-12T01:57:07.416Z,8.7
2018-04-12T01:58:08.801Z,8.6
2018-04-12T01:59:10.190Z,8.7
2018-04-12T02:00:11.576Z,8.7
2018-04-12T02:01:13.031Z,8.6
2018-04-12T02:02:14.419Z,8.6
2018-04-12T02:03:15.800Z,8.6
2018-04-12T02:04:17.187Z,8.6
2018-04-12T02:05:18.570Z,8.7
2018-04-12T02:06:19.960Z,8.6
2018-04-12T02:07:21.344Z,8.5
2018-04-12T02:08:22.732Z,8.6
2018-04-12T02:09:24.119Z,8.6
2018-04-12T02:10:25.502Z,8.5
2018-04-12T02:11:26.885Z,8.6
2018-04-12T02:12:28.272Z,8.5
2018-04-12T02:13:29.662Z,8.5
2018-04-12T02:14:31.047Z,8.5
2018-04-12T02:15:32.435Z,8.5
2018-04-12T02:16:33.816Z,8.5
2018-04-12T02:17:35.201Z,8.5
2018-04-12T02:18:36.586Z,8.4
2018-04-12T02:19:37.969Z,8.5
2018-04-12T02:20:39.356Z,8.5
2018-04-12T02:21:40.748Z,8.5
2018-04-12T02:22:42.127Z,8.3
2018-04-12T02:23:43.512Z,8.5
2018-04-12T02:24:44.898Z,8.4
2018-04-12T02:25:46.284Z,8.4
2018-04-12T02:26:47.665Z,8.4
2018-04-12T02:27:49.052Z,8.4
2018-04-12T02:28:50.440Z,8.4
2018-04-12T02:29:51.824Z,8.4
2018-04-12T02:30:53.212Z,8.4
2018-04-12T02:31:54.589Z,8.3
2018-04-12T02:32:55.975Z,8.3
2018-04-12T02:33:57.359Z,8.4
2018-04-12T02:34:58.750Z,8.3
2018-04-12T02:36:00.134Z,8.4
2018-04-12T02:37:01.525Z,8.4
2018-04-12T02:38:02.912Z,8.4
2018-04-12T02:39:04.296Z,8.4
2018-04-12T02:40:05.679Z,8.3
2018-04-12T02:41:07.066Z,8.4
2018-04-12T02:42:08.449Z,8.4
2018-04-12T02:43:09.836Z,8.3
2018-04-12T02:44:11.220Z,8.3
2018-04-12T02:45:12.603Z,8.3
2018-04-12T02:46:13.984Z,8.3
2018-04-12T02:47:15.368Z,8.3
2018-04-12T02:48:16.752Z,8.3
2018-04-12T02:49:18.137Z,8.3
2018-04-12T02:50:19.525Z,8.2
2018-04-12T02:51:20.930Z,8.2
2018-04-12T02:52:22.324Z,8.2
2018-04-12T02:53:23.711Z,8.2
2018-04-12T02:54:25.095Z,8.2
2018-04-12T02:55:26.477Z,8.1
2018-04-12T02:56:27.863Z,8.2
2018-04-12T02:57:29.250Z,8.1
2018-04-12T02:58:30.636Z,8.1
2018-04-12T02:59:32.020Z,8.2
2018-04-12T03:00:33.401Z,8.1
2018-04-12T03:01:34.792Z,8.2
2018-04-12T03:02:36.178Z,8.2
2018-04-12T03:03:37.556Z,8.1
2018-04-12T03:04:38.942Z,8.1
2018-04-12T03:05:40.326Z,8.2
2018-04-12T03:06:41.711Z,8.1
2018-04-12T03:07:43.095Z,8.2
2018-04-12T03:08:44.479Z,8.2
2018-04-12T03:09:45.863Z,8.2
2018-04-12T03:10:47.246Z,8.2
2018-04-12T03:11:48.631Z,8.3
2018-04-12T03:12:50.019Z,8.2
2018-04-12T03:13:51.399Z,8.3
2018-04-12T03:14:52.784Z,8.2
2018-04-12T03:15:54.167Z,8.2
2018-04-12T03:16:55.551Z,8.2
2018-04-12T03:17:56.936Z,8.2
2018-04-12T03:18:58.321Z,8.2
2018-04-12T03:19:59.710Z,8.1
2018-04-12T03:21:01.093Z,8.2
2018-04-12T03:22:02.475Z,8.1
2018-04-12T03:23:03.858Z,8.2
2018-04-12T03:24:05.243Z,8.2
2018-04-12T03:25:06.629Z,8.0
2018-04-12T03:26:08.018Z,8.0
2018-04-12T03:27:09.400Z,8.0
2018-04-12T03:28:10.821Z,8.0
2018-04-12T03:29:12.207Z,8.1
2018-04-12T03:30:13.596Z,8.0
2018-04-12T03:31:14.978Z,8.0
2018-04-12T03:32:16.363Z,8.0
2018-04-12T03:33:17.747Z,8.0
2018-04-12T03:34:19.167Z,8.1
2018-04-12T03:35:20.547Z,8.0
2018-04-12T03:36:21.931Z,8.0
2018-04-12T03:37:23.315Z,8.0
2018-04-12T03:38:24.700Z,8.0
2018-04-12T03:39:26.089Z,8.0
2018-04-12T03:40:27.472Z,8.0
2018-04-12T03:41:28.883Z,8.0
2018-04-12T03:42:30.287Z,8.0
2018-04-12T03:43:31.694Z,7.9
2018-04-12T03:44:33.077Z,7.8
2018-04-12T03:45:34.463Z,7.8
2018-04-12T03:46:35.863Z,7.9
2018-04-12T03:47:37.235Z,7.8
2018-04-12T03:48:38.718Z,7.8
2018-04-12T03:49:40.016Z,7.7
2018-04-12T03:50:41.352Z,7.7
2018-04-12T03:51:42.735Z,7.7
2018-04-12T03:52:44.122Z,7.7
2018-04-12T03:53:45.506Z,7.6
2018-04-12T03:54:46.890Z,7.6
2018-04-12T03:55:48.276Z,7.7
2018-04-12T03:56:49.658Z,7.6
2018-04-12T03:57:51.043Z,7.6
2018-04-12T03:58:52.428Z,7.6
2018-04-12T03:59:53.813Z,7.6
2018-04-12T04:00:55.199Z,7.6
2018-04-12T04:01:56.587Z,7.6
2018-04-12T04:02:57.973Z,7.5
2018-04-12T04:03:59.357Z,7.5
2018-04-12T04:05:00.743Z,7.5
2018-04-12T04:06:02.128Z,7.6
2018-04-12T04:07:03.517Z,7.5
2018-04-12T04:08:04.903Z,7.4
2018-04-12T04:09:06.289Z,7.6
2018-04-12T04:10:07.676Z,7.5
2018-04-12T04:11:09.061Z,7.5
2018-04-12T04:12:10.444Z,7.5
2018-04-12T04:13:11.828Z,7.6
2018-04-12T04:14:13.212Z,7.6
2018-04-12T04:15:14.597Z,7.7
2018-04-12T04:16:15.985Z,7.7
2018-04-12T04:17:17.366Z,7.7
2018-04-12T04:18:18.750Z,7.7
2018-04-12T04:19:20.131Z,7.7
2018-04-12T04:20:21.516Z,7.7
2018-04-12T04:21:22.900Z,7.7
2018-04-12T04:22:24.283Z,7.7
2018-04-12T04:23:25.672Z,7.7
2018-04-12T04:24:27.058Z,7.6
2018-04-12T04:25:28.441Z,7.6
2018-04-12T04:26:29.827Z,7.7
2018-04-12T04:27:31.221Z,7.6
2018-04-12T04:28:32.604Z,7.7
2018-04-12T04:29:33.992Z,7.7
2018-04-12T04:30:35.388Z,7.7
2018-04-12T04:31:36.761Z,7.7
2018-04-12T04:32:38.185Z,7.7
2018-04-12T04:33:39.606Z,7.7
2018-04-12T04:34:40.988Z,7.7
2018-04-12T04:35:42.375Z,7.7
2018-04-12T04:36:43.763Z,7.7
2018-04-12T04:37:45.146Z,7.7
2018-04-12T04:38:46.547Z,7.7
2018-04-12T04:39:47.959Z,7.7
2018-04-12T04:40:49.317Z,7.7
2018-04-12T04:41:50.704Z,7.6
2018-04-12T04:42:52.090Z,7.7
2018-04-12T04:43:53.476Z,7.5
2018-04-12T04:44:54.865Z,7.5
2018-04-12T04:45:56.255Z,7.6
2018-04-12T04:46:57.824Z,7.5
2018-04-12T04:47:59.209Z,7.6
2018-04-12T04:49:00.591Z,7.6
2018-04-12T04:50:01.980Z,7.6
2018-04-12T04:51:03.372Z,7.6
2018-04-12T04:52:04.759Z,7.6
2018-04-12T04:53:06.148Z,7.6
2018-04-12T04:54:07.529Z,7.7
2018-04-12T04:55:08.915Z,7.7
2018-04-12T04:56:10.303Z,7.6
2018-04-12T04:57:11.686Z,7.7
2018-04-12T04:58:13.070Z,7.7
2018-04-12T04:59:14.458Z,7.7
2018-04-12T05:00:15.844Z,7.7
2018-04-12T05:01:17.232Z,7.7
2018-04-12T05:02:18.620Z,7.7
2018-04-12T05:03:20.011Z,7.7
2018-04-12T05:04:21.395Z,7.8
2018-04-12T05:05:22.781Z,7.8
2018-04-12T05:06:24.170Z,7.7
2018-04-12T05:07:25.556Z,7.7
2018-04-12T05:08:26.943Z,7.7
2018-04-12T05:09:28.329Z,7.7
2018-04-12T05:10:29.722Z,7.7
2018-04-12T05:11:31.152Z,7.7
2018-04-12T05:12:32.497Z,7.7
2018-04-12T05:13:33.888Z,7.7
2018-04-12T05:14:35.278Z,7.7
2018-04-12T05:15:36.679Z,7.7
2018-04-12T05:16:38.051Z,7.6
2018-04-12T05:17:39.441Z,7.6
2018-04-12T05:18:40.830Z,7.6
2018-04-12T05:19:42.230Z,7.6
2018-04-12T05:20:43.619Z,7.7
2018-04-12T05:21:45.009Z,7.6
2018-04-12T05:22:46.412Z,7.6
2018-04-12T05:23:47.812Z,7.7
2018-04-12T05:24:49.201Z,7.7
2018-04-12T05:25:50.589Z,7.6
2018-04-12T05:26:51.977Z,7.6
2018-04-12T05:27:53.436Z,7.6
2018-04-12T05:28:54.770Z,7.6
2018-04-12T05:29:56.154Z,7.6
2018-04-12T05:30:57.543Z,7.6
2018-04-12T05:31:58.932Z,7.6
2018-04-12T05:33:00.315Z,7.6
2018-04-12T05:34:01.705Z,7.6
2018-04-12T05:35:03.094Z,7.7
2018-04-12T05:36:04.481Z,7.6
2018-04-12T05:37:05.869Z,7.7
2018-04-12T05:38:07.255Z,7.7
2018-04-12T05:39:08.648Z,7.7
2018-04-12T05:40:10.063Z,7.7
2018-04-12T05:41:11.417Z,7.7
2018-04-12T05:42:12.807Z,7.8
2018-04-12T05:43:14.195Z,7.8
2018-04-12T05:44:15.584Z,7.7
2018-04-12T05:45:16.969Z,7.8
2018-04-12T05:46:18.379Z,7.8
2018-04-12T05:47:19.746Z,7.7
2018-04-12T05:48:21.136Z,7.7
2018-04-12T05:49:22.519Z,7.7
2018-04-12T05:50:23.914Z,7.6
2018-04-12T05:51:25.292Z,7.7
2018-04-12T05:52:26.680Z,7.7
2018-04-12T05:53:28.067Z,7.7
2018-04-12T05:54:29.464Z,7.7
2018-04-12T05:55:30.854Z,7.7
2018-04-12T05:56:32.240Z,7.7
2018-04-12T05:57:33.627Z,7.8
2018-04-12T05:58:35.013Z,7.7
2018-04-12T05:59:36.400Z,7.8
2018-04-12T06:00:37.789Z,7.8
2018-04-12T06:01:39.178Z,7.9
2018-04-12T06:02:40.568Z,7.9
2018-04-12T06:03:41.957Z,8.0
2018-04-12T06:04:43.361Z,7.9
2018-04-12T06:05:44.743Z,8.0
2018-04-12T06:06:46.132Z,8.0
2018-04-12T06:07:47.518Z,8.1
2018-04-12T06:08:48.905Z,8.1
2018-04-12T06:09:50.298Z,8.2
2018-04-12T06:10:51.687Z,8.2
2018-04-12T06:11:53.074Z,8.2
2018-04-12T06:12:54.464Z,8.3
2018-04-12T06:13:55.870Z,8.3
2018-04-12T06:14:57.268Z,8.4
2018-04-12T06:15:58.654Z,8.4
2018-04-12T06:17:00.040Z,8.3
2018-04-12T06:18:01.432Z,8.4
2018-04-12T06:19:02.821Z,8.5
2018-04-12T06:20:04.210Z,8.5
2018-04-12T06:21:05.597Z,8.5
2018-04-12T06:22:06.985Z,8.6
2018-04-12T06:23:08.374Z,8.5
2018-04-12T06:24:09.763Z,8.6
2018-04-12T06:25:11.167Z,8.6
2018-04-12T06:26:12.556Z,8.8
2018-04-12T06:27:13.949Z,8.8
2018-04-12T06:28:15.332Z,8.8
2018-04-12T06:29:16.732Z,9.0
2018-04-12T06:30:18.116Z,9.0
2018-04-12T06:31:19.504Z,9.0
2018-04-12T06:32:20.893Z,9.0
2018-04-12T06:33:22.286Z,9.1
2018-04-12T06:34:23.672Z,9.1
2018-04-12T06:35:25.060Z,9.1
2018-04-12T06:36:26.452Z,9.2
2018-04-12T06:37:27.839Z,9.3
2018-04-12T06:38:29.231Z,9.2
2018-04-12T06:39:30.621Z,9.3
2018-04-12T06:40:32.019Z,9.3
2018-04-12T06:41:33.402Z,9.3
2018-04-12T06:42:34.789Z,9.3
2018-04-12T06:43:36.179Z,9.3
2018-04-12T06:44:37.567Z,9.4
2018-04-12T06:45:38.959Z,9.5
2018-04-12T06:46:40.348Z,9.5
2018-04-12T06:47:41.735Z,9.4
2018-04-12T06:48:43.124Z,9.5
2018-04-12T06:49:44.518Z,9.6
2018-04-12T06:50:45.900Z,9.5
2018-04-12T06:51:47.288Z,9.5
2018-04-12T06:52:48.677Z,9.6
2018-04-12T06:53:50.070Z,9.7
2018-04-12T06:54:51.458Z,9.7
2018-04-12T06:55:52.856Z,9.7
2018-04-12T06:56:54.243Z,9.7
2018-04-12T06:57:55.646Z,9.7
2018-04-12T06:58:57.037Z,9.8
2018-04-12T06:59:58.430Z,9.9
2018-04-12T07:00:59.814Z,9.9
2018-04-12T07:02:01.205Z,9.9
2018-04-12T07:03:02.590Z,9.8
2018-04-12T07:04:04.020Z,9.8
2018-04-12T07:05:05.493Z,9.9
2018-04-12T07:06:06.888Z,9.9
2018-04-12T07:07:08.290Z,9.9
2018-04-12T07:08:09.680Z,10.0
2018-04-12T07:09:11.072Z,10.0
2018-04-12T07:10:12.465Z,10.1
2018-04-12T07:11:13.852Z,10.1
2018-04-12T07:12:15.242Z,10.1
2018-04-12T07:13:16.634Z,10.2
2018-04-12T07:14:18.025Z,10.3
2018-04-12T07:15:19.417Z,10.1
2018-04-12T07:16:20.809Z,10.3
2018-04-12T07:17:22.205Z,10.2
2018-04-12T07:18:23.587Z,10.3
2018-04-12T07:19:24.974Z,10.3
2018-04-12T07:20:26.367Z,10.4
2018-04-12T07:21:27.762Z,10.4
2018-04-12T07:22:29.154Z,10.4
2018-04-12T07:23:30.545Z,10.5
2018-04-12T07:24:31.935Z,10.6
2018-04-12T07:25:33.325Z,10.5
2018-04-12T07:26:34.716Z,10.5
2018-04-12T07:27:36.105Z,10.6
2018-04-12T07:28:37.497Z,10.7
2018-04-12T07:29:38.891Z,10.7
2018-04-12T07:30:40.283Z,10.7
2018-04-12T07:31:41.672Z,10.8
2018-04-12T07:32:43.069Z,10.8
2018-04-12T07:33:44.455Z,10.9
2018-04-12T07:34:45.850Z,10.9
2018-04-12T07:35:47.247Z,10.9
2018-04-12T07:36:48.632Z,10.9
2018-04-12T07:37:50.031Z,11.0
2018-04-12T07:38:51.422Z,11.0
2018-04-12T07:39:52.814Z,11.0
2018-04-12T07:40:54.205Z,11.2
2018-04-12T07:41:55.595Z,11.1
2018-04-12T07:42:56.987Z,11.1
2018-04-12T07:43:58.382Z,11.2
2018-04-12T07:44:59.773Z,11.3
2018-04-12T07:46:01.179Z,11.3
2018-04-12T07:47:02.566Z,11.4
2018-04-12T07:48:03.963Z,11.6
2018-04-12T07:49:05.354Z,11.6
2018-04-12T07:50:06.750Z,11.6
2018-04-12T07:51:08.148Z,11.7
2018-04-12T07:52:09.539Z,11.8
2018-04-12T07:53:10.930Z,11.8
2018-04-12T07:54:12.360Z,11.9
2018-04-12T07:55:13.800Z,12.0
2018-04-12T07:56:15.198Z,12.0
2018-04-12T07:57:16.589Z,12.2
2018-04-12T07:58:17.982Z,12.3
2018-04-12T07:59:19.433Z,12.4
2018-04-12T08:00:20.824Z,12.5
2018-04-12T08:01:22.214Z,12.5
2018-04-12T08:02:23.605Z,12.7
2018-04-12T08:03:25.031Z,12.8
2018-04-12T08:04:26.431Z,12.9
2018-04-12T08:05:27.821Z,12.9
2018-04-12T08:06:29.254Z,12.9
2018-04-12T08:07:30.647Z,12.9
2018-04-12T08:08:32.039Z,13.0
2018-04-12T08:09:33.432Z,13.0
2018-04-12T08:10:34.830Z,12.9
2018-04-12T08:11:36.222Z,13.0
2018-04-12T08:12:37.616Z,13.1
2018-04-12T08:13:39.016Z,13.2
2018-04-12T08:14:40.402Z,13.2
2018-04-12T08:15:41.796Z,13.2
2018-04-12T08:16:43.194Z,13.3
2018-04-12T08:17:44.587Z,13.2
2018-04-12T08:18:45.985Z,13.3
2018-04-12T08:19:47.378Z,13.3
2018-04-12T08:20:48.778Z,13.4
2018-04-12T08:21:50.164Z,13.3
2018-04-12T08:22:51.560Z,13.4
2018-04-12T08:23:52.955Z,13.4
2018-04-12T08:24:54.391Z,13.4
2018-04-12T08:25:55.742Z,13.4
2018-04-12T08:26:57.138Z,13.4
2018-04-12T08:27:58.537Z,13.5
2018-04-12T08:28:59.929Z,13.5
2018-04-12T08:30:01.326Z,13.5
2018-04-12T08:31:02.719Z,13.6
2018-04-12T08:32:04.116Z,13.6
2018-04-12T08:33:05.509Z,13.7
2018-04-12T08:34:06.908Z,13.7
2018-04-12T08:35:08.298Z,13.8
2018-04-12T08:36:09.694Z,13.8
2018-04-12T08:37:11.092Z,13.8
2018-04-12T08:38:12.482Z,13.8
2018-04-12T08:39:13.881Z,13.9
2018-04-12T08:40:15.276Z,14.0
2018-04-12T08:41:16.673Z,14.0
2018-04-12T08:42:18.068Z,13.9
2018-04-12T08:43:19.459Z,14.0
2018-04-12T08:44:20.920Z,14.0
2018-04-12T08:45:22.392Z,14.0
2018-04-12T08:46:23.789Z,14.0
2018-04-12T08:47:25.188Z,14.1
2018-04-12T08:48:26.583Z,14.1
2018-04-12T08:49:27.980Z,14.1
2018-04-12T08:50:29.374Z,14.1
2018-04-12T08:51:30.766Z,14.2
2018-04-12T08:52:32.162Z,14.2
2018-04-12T08:53:33.555Z,14.2
2018-04-12T08:54:34.959Z,14.2
2018-04-12T08:55:36.355Z,14.4
2018-04-12T08:56:37.750Z,14.4
2018-04-12T08:57:39.137Z,14.4
2018-04-12T08:58:40.535Z,14.5
2018-04-12T08:59:41.936Z,14.5
2018-04-12T09:00:43.329Z,14.6
2018-04-12T09:01:44.732Z,14.5
2018-04-12T09:02:46.127Z,14.6
2018-04-12T09:03:47.521Z,14.4
2018-04-12T09:04:48.913Z,14.5
2018-04-12T09:05:50.309Z,14.4
2018-04-12T09:06:51.703Z,14.5
2018-04-12T09:07:53.100Z,14.6
2018-04-12T09:08:54.495Z,14.7
2018-04-12T09:09:55.892Z,14.7
2018-04-12T09:10:57.288Z,14.8
2018-04-12T09:11:58.686Z,14.8
2018-04-12T09:13:00.079Z,15.0
2018-04-12T09:14:01.474Z,15.0
2018-04-12T09:15:02.896Z,15.1
2018-04-12T09:16:04.296Z,15.1
2018-04-12T09:17:05.692Z,15.1
2018-04-12T09:18:07.087Z,15.2
2018-04-12T09:19:08.483Z,15.2
2018-04-12T09:20:09.875Z,15.3
2018-04-12T09:21:11.272Z,15.3
2018-04-12T09:22:12.665Z,15.4
2018-04-12T09:23:14.067Z,15.5
2018-04-12T09:24:15.463Z,15.3
2018-04-12T09:25:16.859Z,15.3
2018-04-12T09:26:18.249Z,15.3
2018-04-12T09:27:19.653Z,15.4
2018-04-12T09:28:21.054Z,15.3
2018-04-12T09:29:22.442Z,15.4
2018-04-12T09:30:23.839Z,15.4
2018-04-12T09:31:25.234Z,15.4
2018-04-12T09:32:26.631Z,15.5
2018-04-12T09:33:28.024Z,15.6
2018-04-12T09:34:29.475Z,15.6
2018-04-12T09:35:30.881Z,15.6
2018-04-12T09:36:32.288Z,15.6
2018-04-12T09:37:33.690Z,15.7
2018-04-12T09:38:35.084Z,15.8
2018-04-12T09:39:36.481Z,15.8
2018-04-12T09:40:37.874Z,15.9
2018-04-12T09:41:39.268Z,16.1
2018-04-12T09:42:40.663Z,16.2
2018-04-12T09:43:42.060Z,16.3
2018-04-12T09:44:43.449Z,16.4
2018-04-12T09:45:44.852Z,16.5
2018-04-12T09:46:46.246Z,16.6
2018-04-12T09:47:47.640Z,16.6
2018-04-12T09:48:49.034Z,16.8
2018-04-12T09:49:50.428Z,16.8
2018-04-12T09:50:51.823Z,17.0
2018-04-12T09:51:53.222Z,17.0
2018-04-12T09:52:54.618Z,17.1
2018-04-12T09:53:56.114Z,17.0
2018-04-12T09:54:57.513Z,17.2
2018-04-12T09:55:58.905Z,17.1
2018-04-12T09:57:00.301Z,17.1
2018-04-12T09:58:01.710Z,17.1
2018-04-12T09:59:03.106Z,17.1
2018-04-12T10:00:04.573Z,17.2
2018-04-12T10:01:05.933Z,17.2
2018-04-12T10:02:07.322Z,17.3
2018-04-12T10:03:08.718Z,17.3
2018-04-12T10:04:10.107Z,17.3
2018-04-12T10:05:11.502Z,17.5
2018-04-12T10:06:12.901Z,17.6
2018-04-12T10:07:14.302Z,17.9
2018-04-12T10:08:15.697Z,18.0
2018-04-12T10:09:17.095Z,18.3
2018-04-12T10:10:18.488Z,18.4
2018-04-12T10:11:19.883Z,18.6
2018-04-12T10:12:21.284Z,18.7
2018-04-12T10:13:22.685Z,18.9
2018-04-12T10:14:24.083Z,19.1
2018-04-12T10:15:25.484Z,19.2
2018-04-12T10:16:26.878Z,19.4
2018-04-12T10:17:28.277Z,19.4
2018-04-12T10:18:29.670Z,19.5
2018-04-12T10:19:31.069Z,19.6
2018-04-12T10:20:32.468Z,19.7
2018-04-12T10:21:33.868Z,19.9
2018-04-12T10:22:35.268Z,19.9
2018-04-12T10:23:36.759Z,19.8
2018-04-12T10:24:38.181Z,20.0
2018-04-12T10:25:39.587Z,20.2
2018-04-12T10:26:40.985Z,20.1
2018-04-12T10:27:42.385Z,20.2
2018-04-12T10:28:43.839Z,20.3
2018-04-12T10:29:45.184Z,20.1
2018-04-12T10:30:46.579Z,20.1
2018-04-12T10:31:47.976Z,20.1
2018-04-12T10:32:49.383Z,20.0
2018-04-12T10:33:50.772Z,20.0
2018-04-12T10:34:52.170Z,19.9
2018-04-12T10:35:53.568Z,20.0
2018-04-12T10:36:54.975Z,20.0
2018-04-12T10:37:56.363Z,20.0
2018-04-12T10:38:57.756Z,20.0
2018-04-12T10:39:59.155Z,20.1
2018-04-12T10:41:00.552Z,20.1
2018-04-12T10:42:01.948Z,20.0
2018-04-12T10:43:03.347Z,20.0
2018-04-12T10:44:04.747Z,20.0
2018-04-12T10:45:06.140Z,20.0
2018-04-12T10:46:07.544Z,20.0
2018-04-12T10:47:08.938Z,19.9
2018-04-12T10:48:10.337Z,19.8
2018-04-12T10:49:11.734Z,19.7
2018-04-12T10:50:13.136Z,19.6
2018-04-12T10:51:14.537Z,19.5
2018-04-12T10:52:15.934Z,19.4
2018-04-12T10:53:17.325Z,19.3
2018-04-12T10:54:18.724Z,19.1
2018-04-12T10:55:20.120Z,19.0
2018-04-12T10:56:21.525Z,18.9
2018-04-12T10:57:22.923Z,18.9
2018-04-12T10:58:24.324Z,18.7
2018-04-12T10:59:25.749Z,18.6
2018-04-12T11:00:27.105Z,18.6
2018-04-12T11:01:28.500Z,18.5
2018-04-12T11:02:29.894Z,18.5
2018-04-12T11:03:31.294Z,18.5
2018-04-12T11:04:32.689Z,18.4
2018-04-12T11:05:34.085Z,18.4
2018-04-12T11:06:35.480Z,18.4
2018-04-12T11:07:36.879Z,18.5
2018-04-12T11:08:38.277Z,18.5
2018-04-12T11:09:39.677Z,18.5
2018-04-12T11:10:41.071Z,18.5
2018-04-12T11:11:42.507Z,18.5
2018-04-12T11:12:43.949Z,18.5
2018-04-12T11:13:45.359Z,18.5
2018-04-12T11:14:46.757Z,18.6
2018-04-12T11:15:48.150Z,18.5
2018-04-12T11:16:49.552Z,18.6
2018-04-12T11:17:50.946Z,18.7
2018-04-12T11:18:52.341Z,18.7
2018-04-12T11:19:53.740Z,18.9
2018-04-12T11:20:55.133Z,19.0
2018-04-12T11:21:56.528Z,19.1
2018-04-12T11:22:57.924Z,19.2
2018-04-12T11:23:59.320Z,19.4
2018-04-12T11:25:00.720Z,19.7
2018-04-12T11:26:02.135Z,19.9
2018-04-12T11:27:03.526Z,20.2
2018-04-12T11:28:04.912Z,20.4
2018-04-12T11:29:06.310Z,20.5
2018-04-12T11:30:07.708Z,20.7
2018-04-12T11:31:09.114Z,21.1
2018-04-12T11:32:10.513Z,21.3
2018-04-12T11:33:11.934Z,21.4
2018-04-12T11:34:13.341Z,21.7
2018-04-12T11:35:14.767Z,22.0
2018-04-12T11:36:16.153Z,21.8
2018-04-12T11:37:17.552Z,22.0
2018-04-12T11:38:18.948Z,22.2
2018-04-12T11:39:20.356Z,22.3
2018-04-12T11:40:21.767Z,22.2
2018-04-12T11:41:23.152Z,22.4
2018-04-12T11:42:24.549Z,22.6
2018-04-12T11:43:25.948Z,22.7
2018-04-12T11:44:27.344Z,22.8
2018-04-12T11:45:28.764Z,22.8
2018-04-12T11:46:30.146Z,22.8
2018-04-12T11:47:31.559Z,22.9
2018-04-12T11:48:32.958Z,23.0
2018-04-12T11:49:34.356Z,23.0
2018-04-12T11:50:35.756Z,23.1
2018-04-12T11:51:37.156Z,23.2
2018-04-12T11:52:38.554Z,23.3
2018-04-12T11:53:39.956Z,23.3
2018-04-12T11:54:41.356Z,23.5
2018-04-12T11:55:42.771Z,23.8
2018-04-12T11:56:44.164Z,23.9
2018-04-12T11:57:45.563Z,24.0
2018-04-12T11:58:46.962Z,24.1
2018-04-12T11:59:48.360Z,24.2
2018-04-12T12:00:49.839Z,24.4
2018-04-12T12:01:51.290Z,24.6
2018-04-12T12:02:52.698Z,24.7
2018-04-12T12:03:54.114Z,24.9
2018-04-12T12:04:55.515Z,25.0
2018-04-12T12:05:56.913Z,25.0
2018-04-12T12:06:58.364Z,25.1
2018-04-12T12:07:59.725Z,25.4
2018-04-12T12:09:01.132Z,25.3
2018-04-12T12:10:02.554Z,25.3
2018-04-12T12:11:03.957Z,25.3
2018-04-12T12:12:05.351Z,25.1
2018-04-12T12:13:06.750Z,25.2
2018-04-12T12:14:08.153Z,25.3
2018-04-12T12:15:09.553Z,25.5
2018-04-12T12:16:10.953Z,25.7
2018-04-12T12:17:12.358Z,25.8
2018-04-12T12:18:13.757Z,25.7
2018-04-12T12:19:15.163Z,25.8
2018-04-12T12:20:16.560Z,25.9
2018-04-12T12:21:17.971Z,26.0
2018-04-12T12:22:19.378Z,26.0
2018-04-12T12:23:20.775Z,26.1
2018-04-12T12:24:22.209Z,26.1
2018-04-12T12:25:23.610Z,26.1
2018-04-12T12:26:25.010Z,26.2
2018-04-12T12:27:26.409Z,26.3
2018-04-12T12:28:27.861Z,26.4
2018-04-12T12:29:29.208Z,26.4
2018-04-12T12:30:30.612Z,26.5
2018-04-12T12:31:32.015Z,26.4
2018-04-12T12:32:33.416Z,26.5
2018-04-12T12:33:34.827Z,26.5
2018-04-12T12:34:36.227Z,26.6
2018-04-12T12:35:37.628Z,26.7
2018-04-12T12:36:39.030Z,26.8
2018-04-12T12:37:40.434Z,26.8
2018-04-12T12:38:41.841Z,26.7
2018-04-12T12:39:43.283Z,26.5
2018-04-12T12:40:44.683Z,26.4
2018-04-12T12:41:46.086Z,26.5
2018-04-12T12:42:47.488Z,26.6
2018-04-12T12:43:48.934Z,26.5
2018-04-12T12:44:50.296Z,26.6
2018-04-12T12:45:51.697Z,26.7
2018-04-12T12:46:53.102Z,26.8
2018-04-12T12:47:54.503Z,26.8
2018-04-12T12:48:55.960Z,26.8
2018-04-12T12:49:57.403Z,26.8
2018-04-12T12:50:58.805Z,26.8
2018-04-12T12:52:00.219Z,26.7
2018-04-12T12:53:01.622Z,26.8
2018-04-12T12:54:03.027Z,26.8
2018-04-12T12:55:04.446Z,27.0
2018-04-12T12:56:05.863Z,27.0
2018-04-12T12:57:07.249Z,27.0
2018-04-12T12:58:08.654Z,27.0
2018-04-12T12:59:10.058Z,26.9
2018-04-12T13:00:11.461Z,27.1
2018-04-12T13:01:12.860Z,27.0
2018-04-12T13:02:14.272Z,27.1
2018-04-12T13:03:15.667Z,27.1
2018-04-12T13:04:17.071Z,27.3
2018-04-12T13:05:18.474Z,27.1
2018-04-12T13:06:19.878Z,27.0
2018-04-12T13:07:21.280Z,27.2
2018-04-12T13:08:22.684Z,27.2
2018-04-12T13:09:24.087Z,27.2
2018-04-12T13:10:25.489Z,27.3
2018-04-12T13:11:26.890Z,27.4
2018-04-12T13:12:28.292Z,27.4
2018-04-12T13:13:29.694Z,27.4
2018-04-12T13:14:31.101Z,27.3
2018-04-12T13:15:32.503Z,27.1
2018-04-12T13:16:33.903Z,26.9
2018-04-12T13:17:35.306Z,26.6
2018-04-12T13:18:36.707Z,26.4
2018-04-12T13:19:38.109Z,26.4
2018-04-12T13:20:39.514Z,26.5
2018-04-12T13:21:40.913Z,26.8
2018-04-12T13:22:42.314Z,26.8
2018-04-12T13:23:43.727Z,26.9
2018-04-12T13:24:45.132Z,26.9
2018-04-12T13:25:46.569Z,26.8
2018-04-12T13:26:47.941Z,26.9
2018-04-12T13:27:49.343Z,26.7
2018-04-12T13:28:50.749Z,26.8
2018-04-12T13:29:52.148Z,26.9
2018-04-12T13:30:53.552Z,26.9
2018-04-12T13:31:54.953Z,26.9
2018-04-12T13:32:56.364Z,27.0
2018-04-12T13:33:57.760Z,27.0
2018-04-12T13:34:59.163Z,26.9
2018-04-12T13:36:00.567Z,26.8
2018-04-12T13:37:01.978Z,26.8
2018-04-12T13:38:03.433Z,26.9
2018-04-12T13:39:04.834Z,26.9
2018-04-12T13:40:06.235Z,27.0
2018-04-12T13:41:07.636Z,26.9
2018-04-12T13:42:09.047Z,26.8
2018-04-12T13:43:10.439Z,26.8
2018-04-12T13:44:11.840Z,26.7
2018-04-12T13:45:13.239Z,26.4
2018-04-12T13:46:14.637Z,26.3
2018-04-12T13:47:16.035Z,26.2
2018-04-12T13:48:17.440Z,25.9
2018-04-12T13:49:18.849Z,25.8
2018-04-12T13:50:20.249Z,25.6
2018-04-12T13:51:21.648Z,25.6